sensor_id;sensor_type;location;lat;lon;timestamp;temperature;humidity
5210;DHT22;2624;48.048;11.706;2023-07-31T00:04:52;19.30;99.90
5210;DHT22;2624;48.048;11.706;2023-07-31T00:09:57;19.10;99.90
5210;DHT22;2624;48.048;11.706;2023-07-31T00:14:59;18.70;99.90
5210;DHT22;2624;48.048;11.706;2023-07-31T00:20:02;18.50;99.90
5210;DHT22;2624;48.048;11.706;2023-07-31T00:25:04;18.40;99.90
5210;DHT22;2624;48.048;11.706;2023-07-31T00:30:07;18.50;99.90
5210;DHT22;2624;48.048;11.706;2023-07-31T00:35:10;18.40;99.90
5210;DHT22;2624;48.048;11.706;2023-07-31T00:40:12;18.50;99.90
5210;DHT22;2624;48.048;11.706;2023-07-31T00:45:14;18.20;99.90
5210;DHT22;2624;48.048;11.706;2023-07-31T00:50:17;18.30;99.90
5210;DHT22;2624;48.048;11.706;2023-07-31T00:55:19;18.40;99.90
5210;DHT22;2624;48.048;11.706;2023-07-31T01:00:22;18.40;99.90
5210;DHT22;2624;48.048;11.706;2023-07-31T01:05:32;18.50;99.90
5210;DHT22;2624;48.048;11.706;2023-07-31T01:10:46;18.10;99.90
5210;DHT22;2624;48.048;11.706;2023-07-31T01:15:50;18.30;99.90
5210;DHT22;2624;48.048;11.706;2023-07-31T01:20:59;18.50;99.90
5210;DHT22;2624;48.048;11.706;2023-07-31T01:26:11;18.30;99.90
5210;DHT22;2624;48.048;11.706;2023-07-31T01:31:18;18.20;99.90
5210;DHT22;2624;48.048;11.706;2023-07-31T01:36:21;18.30;99.90
5210;DHT22;2624;48.048;11.706;2023-07-31T01:41:25;18.40;99.90
5210;DHT22;2624;48.048;11.706;2023-07-31T01:46:26;18.40;99.90
5210;DHT22;2624;48.048;11.706;2023-07-31T01:51:28;18.30;99.90
5210;DHT22;2624;48.048;11.706;2023-07-31T01:56:35;17.90;99.90
5210;DHT22;2624;48.048;11.706;2023-07-31T02:01:37;18.00;99.90
5210;DHT22;2624;48.048;11.706;2023-07-31T02:06:39;18.10;99.90
5210;DHT22;2624;48.048;11.706;2023-07-31T02:11:42;18.30;99.90
5210;DHT22;2624;48.048;11.706;2023-07-31T02:16:44;18.30;99.90
5210;DHT22;2624;48.048;11.706;2023-07-31T02:21:46;18.10;99.90
5210;DHT22;2624;48.048;11.706;2023-07-31T02:26:49;18.10;99.90
5210;DHT22;2624;48.048;11.706;2023-07-31T02:31:50;18.10;99.90
5210;DHT22;2624;48.048;11.706;2023-07-31T02:36:52;18.00;99.90
5210;DHT22;2624;48.048;11.706;2023-07-31T02:41:55;17.70;99.90
5210;DHT22;2624;48.048;11.706;2023-07-31T02:46:57;18.00;99.90
5210;DHT22;2624;48.048;11.706;2023-07-31T02:51:59;17.90;99.90
5210;DHT22;2624;48.048;11.706;2023-07-31T02:57:02;17.70;99.90
5210;DHT22;2624;48.048;11.706;2023-07-31T03:02:05;17.50;99.90
5210;DHT22;2624;48.048;11.706;2023-07-31T03:07:07;17.60;99.90
5210;DHT22;2624;48.048;11.706;2023-07-31T03:12:10;17.80;99.90
5210;DHT22;2624;48.048;11.706;2023-07-31T03:17:12;17.90;99.90
5210;DHT22;2624;48.048;11.706;2023-07-31T03:22:13;17.80;99.90
5210;DHT22;2624;48.048;11.706;2023-07-31T03:27:17;17.90;99.90
5210;DHT22;2624;48.048;11.706;2023-07-31T03:32:19;17.50;99.90
5210;DHT22;2624;48.048;11.706;2023-07-31T03:37:21;17.30;99.90
5210;DHT22;2624;48.048;11.706;2023-07-31T03:42:24;17.00;99.90
5210;DHT22;2624;48.048;11.706;2023-07-31T03:47:26;17.00;99.90
5210;DHT22;2624;48.048;11.706;2023-07-31T03:52:28;17.30;99.90
5210;DHT22;2624;48.048;11.706;2023-07-31T03:57:31;17.30;99.90
5210;DHT22;2624;48.048;11.706;2023-07-31T04:02:33;16.90;99.90
5210;DHT22;2624;48.048;11.706;2023-07-31T04:07:35;16.90;99.90
5210;DHT22;2624;48.048;11.706;2023-07-31T04:12:38;17.40;99.90
5210;DHT22;2624;48.048;11.706;2023-07-31T04:17:40;17.60;99.90
5210;DHT22;2624;48.048;11.706;2023-07-31T04:22:41;17.70;99.90
5210;DHT22;2624;48.048;11.706;2023-07-31T04:27:44;17.30;99.90
5210;DHT22;2624;48.048;11.706;2023-07-31T04:32:46;17.20;99.90
5210;DHT22;2624;48.048;11.706;2023-07-31T04:37:48;17.20;99.90
5210;DHT22;2624;48.048;11.706;2023-07-31T04:42:51;17.50;99.90
5210;DHT22;2624;48.048;11.706;2023-07-31T04:47:53;17.40;99.90
5210;DHT22;2624;48.048;11.706;2023-07-31T04:52:55;17.20;99.90
5210;DHT22;2624;48.048;11.706;2023-07-31T04:57:59;17.20;99.90
5210;DHT22;2624;48.048;11.706;2023-07-31T05:03:01;17.50;99.90
5210;DHT22;2624;48.048;11.706;2023-07-31T05:08:03;17.40;99.90
5210;DHT22;2624;48.048;11.706;2023-07-31T05:13:06;17.50;99.90
5210;DHT22;2624;48.048;11.706;2023-07-31T05:18:08;17.50;99.90
5210;DHT22;2624;48.048;11.706;2023-07-31T05:23:09;17.20;99.90
5210;DHT22;2624;48.048;11.706;2023-07-31T05:28:13;17.00;99.90
5210;DHT22;2624;48.048;11.706;2023-07-31T05:33:14;17.30;99.90
5210;DHT22;2624;48.048;11.706;2023-07-31T05:38:16;17.30;99.90
5210;DHT22;2624;48.048;11.706;2023-07-31T05:43:19;17.30;99.90
5210;DHT22;2624;48.048;11.706;2023-07-31T05:48:21;17.30;99.90
5210;DHT22;2624;48.048;11.706;2023-07-31T05:53:23;17.40;99.90
5210;DHT22;2624;48.048;11.706;2023-07-31T05:58:26;17.60;99.90
5210;DHT22;2624;48.048;11.706;2023-07-31T06:03:28;17.60;99.90
5210;DHT22;2624;48.048;11.706;2023-07-31T06:08:29;17.50;99.90
5210;DHT22;2624;48.048;11.706;2023-07-31T06:13:32;17.60;99.90
5210;DHT22;2624;48.048;11.706;2023-07-31T06:18:34;17.60;99.90
5210;DHT22;2624;48.048;11.706;2023-07-31T06:23:36;17.70;99.90
5210;DHT22;2624;48.048;11.706;2023-07-31T06:28:40;17.70;99.90
5210;DHT22;2624;48.048;11.706;2023-07-31T06:33:41;17.70;99.90
5210;DHT22;2624;48.048;11.706;2023-07-31T06:38:43;17.70;99.90
5210;DHT22;2624;48.048;11.706;2023-07-31T06:43:46;17.70;99.90
5210;DHT22;2624;48.048;11.706;2023-07-31T06:48:48;17.70;99.90
5210;DHT22;2624;48.048;11.706;2023-07-31T06:53:50;17.70;99.90
5210;DHT22;2624;48.048;11.706;2023-07-31T06:58:53;17.80;99.90
5210;DHT22;2624;48.048;11.706;2023-07-31T07:03:54;17.70;99.90
5210;DHT22;2624;48.048;11.706;2023-07-31T07:08:56;17.80;99.90
5210;DHT22;2624;48.048;11.706;2023-07-31T07:13:59;17.90;99.90
5210;DHT22;2624;48.048;11.706;2023-07-31T07:19:02;17.90;99.90
5210;DHT22;2624;48.048;11.706;2023-07-31T07:24:04;18.00;99.90
5210;DHT22;2624;48.048;11.706;2023-07-31T07:29:07;17.90;99.90
5210;DHT22;2624;48.048;11.706;2023-07-31T07:34:11;17.90;99.90
5210;DHT22;2624;48.048;11.706;2023-07-31T07:39:13;17.90;99.90
5210;DHT22;2624;48.048;11.706;2023-07-31T07:44:16;18.10;99.90
5210;DHT22;2624;48.048;11.706;2023-07-31T07:49:17;18.10;99.90
5210;DHT22;2624;48.048;11.706;2023-07-31T07:54:19;18.20;99.90
5210;DHT22;2624;48.048;11.706;2023-07-31T07:59:23;18.30;99.90
5210;DHT22;2624;48.048;11.706;2023-07-31T08:04:24;18.30;99.90
5210;DHT22;2624;48.048;11.706;2023-07-31T08:09:26;18.40;99.90
5210;DHT22;2624;48.048;11.706;2023-07-31T08:14:29;18.40;99.90
5210;DHT22;2624;48.048;11.706;2023-07-31T08:19:31;18.40;99.90
5210;DHT22;2624;48.048;11.706;2023-07-31T08:24:33;18.70;99.90
5210;DHT22;2624;48.048;11.706;2023-07-31T08:29:36;18.70;99.90
5210;DHT22;2624;48.048;11.706;2023-07-31T08:34:38;18.70;99.90
5210;DHT22;2624;48.048;11.706;2023-07-31T08:39:39;18.60;99.90
5210;DHT22;2624;48.048;11.706;2023-07-31T08:44:43;18.70;99.90
5210;DHT22;2624;48.048;11.706;2023-07-31T08:49:46;18.90;99.90
5210;DHT22;2624;48.048;11.706;2023-07-31T08:54:49;18.80;99.90
5210;DHT22;2624;48.048;11.706;2023-07-31T08:59:53;18.90;99.90
5210;DHT22;2624;48.048;11.706;2023-07-31T09:04:54;18.90;99.90
5210;DHT22;2624;48.048;11.706;2023-07-31T09:09:57;19.00;99.90
5210;DHT22;2624;48.048;11.706;2023-07-31T09:15:00;18.80;99.90
5210;DHT22;2624;48.048;11.706;2023-07-31T09:20:15;18.90;99.90
5210;DHT22;2624;48.048;11.706;2023-07-31T09:25:18;18.90;99.90
5210;DHT22;2624;48.048;11.706;2023-07-31T09:30:22;19.10;99.90
5210;DHT22;2624;48.048;11.706;2023-07-31T09:35:29;19.00;99.90
5210;DHT22;2624;48.048;11.706;2023-07-31T09:40:33;19.10;99.90
5210;DHT22;2624;48.048;11.706;2023-07-31T09:45:38;19.30;99.90
5210;DHT22;2624;48.048;11.706;2023-07-31T09:50:44;19.50;99.90
5210;DHT22;2624;48.048;11.706;2023-07-31T09:55:46;19.50;99.90
5210;DHT22;2624;48.048;11.706;2023-07-31T10:00:49;19.70;99.90
5210;DHT22;2624;48.048;11.706;2023-07-31T10:05:52;19.70;99.90
5210;DHT22;2624;48.048;11.706;2023-07-31T10:10:55;19.70;99.90
5210;DHT22;2624;48.048;11.706;2023-07-31T10:16:00;19.70;99.90
5210;DHT22;2624;48.048;11.706;2023-07-31T10:21:02;20.10;99.90
5210;DHT22;2624;48.048;11.706;2023-07-31T10:26:04;20.40;99.90
5210;DHT22;2624;48.048;11.706;2023-07-31T10:31:08;20.60;99.90
5210;DHT22;2624;48.048;11.706;2023-07-31T10:36:13;20.70;99.90
5210;DHT22;2624;48.048;11.706;2023-07-31T10:41:17;20.70;99.90
5210;DHT22;2624;48.048;11.706;2023-07-31T10:46:20;20.60;99.90
5210;DHT22;2624;48.048;11.706;2023-07-31T10:51:32;21.10;99.90
5210;DHT22;2624;48.048;11.706;2023-07-31T10:56:37;21.40;99.90
5210;DHT22;2624;48.048;11.706;2023-07-31T11:01:56;21.10;99.90
5210;DHT22;2624;48.048;11.706;2023-07-31T11:06:59;21.20;99.90
5210;DHT22;2624;48.048;11.706;2023-07-31T11:12:02;21.00;99.90
5210;DHT22;2624;48.048;11.706;2023-07-31T11:17:07;20.90;99.90
5210;DHT22;2624;48.048;11.706;2023-07-31T11:22:09;21.20;99.90
5210;DHT22;2624;48.048;11.706;2023-07-31T11:27:12;21.20;99.90
5210;DHT22;2624;48.048;11.706;2023-07-31T11:32:17;21.30;99.90
5210;DHT22;2624;48.048;11.706;2023-07-31T11:37:19;21.00;99.90
5210;DHT22;2624;48.048;11.706;2023-07-31T11:42:21;21.60;99.90
5210;DHT22;2624;48.048;11.706;2023-07-31T11:47:25;21.30;99.90
5210;DHT22;2624;48.048;11.706;2023-07-31T11:52:28;21.60;99.90
5210;DHT22;2624;48.048;11.706;2023-07-31T11:57:31;21.30;99.90
5210;DHT22;2624;48.048;11.706;2023-07-31T12:02:35;21.50;99.90
5210;DHT22;2624;48.048;11.706;2023-07-31T12:07:47;22.20;99.90
5210;DHT22;2624;48.048;11.706;2023-07-31T12:12:59;22.30;99.90
5210;DHT22;2624;48.048;11.706;2023-07-31T12:18:06;22.50;99.90
5210;DHT22;2624;48.048;11.706;2023-07-31T12:23:13;22.20;99.90
5210;DHT22;2624;48.048;11.706;2023-07-31T12:28:15;22.40;99.90
5210;DHT22;2624;48.048;11.706;2023-07-31T12:33:19;22.60;99.90
5210;DHT22;2624;48.048;11.706;2023-07-31T12:38:20;22.40;99.90
5210;DHT22;2624;48.048;11.706;2023-07-31T12:43:22;22.40;99.90
5210;DHT22;2624;48.048;11.706;2023-07-31T12:48:25;22.50;99.90
5210;DHT22;2624;48.048;11.706;2023-07-31T12:53:27;22.90;99.90
5210;DHT22;2624;48.048;11.706;2023-07-31T12:58:29;22.70;99.70
5210;DHT22;2624;48.048;11.706;2023-07-31T13:03:32;22.80;99.30
5210;DHT22;2624;48.048;11.706;2023-07-31T13:08:34;22.50;99.90
5210;DHT22;2624;48.048;11.706;2023-07-31T13:13:36;22.80;99.90
5210;DHT22;2624;48.048;11.706;2023-07-31T13:18:39;22.80;99.50
5210;DHT22;2624;48.048;11.706;2023-07-31T13:23:40;23.20;97.30
5210;DHT22;2624;48.048;11.706;2023-07-31T13:28:42;23.30;97.00
5210;DHT22;2624;48.048;11.706;2023-07-31T13:33:45;23.20;96.30
5210;DHT22;2624;48.048;11.706;2023-07-31T13:38:47;23.10;98.30
5210;DHT22;2624;48.048;11.706;2023-07-31T13:43:49;23.20;98.50
5210;DHT22;2624;48.048;11.706;2023-07-31T13:48:52;23.20;97.80
5210;DHT22;2624;48.048;11.706;2023-07-31T13:53:55;23.40;98.30
5210;DHT22;2624;48.048;11.706;2023-07-31T13:58:57;23.90;96.60
5210;DHT22;2624;48.048;11.706;2023-07-31T14:04:02;23.80;95.60
5210;DHT22;2624;48.048;11.706;2023-07-31T14:09:04;23.80;98.70
5210;DHT22;2624;48.048;11.706;2023-07-31T14:14:06;23.90;96.30
5210;DHT22;2624;48.048;11.706;2023-07-31T14:19:10;23.70;96.80
5210;DHT22;2624;48.048;11.706;2023-07-31T14:24:11;23.70;97.70
5210;DHT22;2624;48.048;11.706;2023-07-31T14:29:13;23.40;98.60
5210;DHT22;2624;48.048;11.706;2023-07-31T14:34:16;23.30;97.40
5210;DHT22;2624;48.048;11.706;2023-07-31T14:39:18;23.60;96.30
5210;DHT22;2624;48.048;11.706;2023-07-31T14:44:20;23.60;97.20
5210;DHT22;2624;48.048;11.706;2023-07-31T14:49:23;23.50;94.80
5210;DHT22;2624;48.048;11.706;2023-07-31T14:54:25;23.50;96.90
5210;DHT22;2624;48.048;11.706;2023-07-31T14:59:26;23.60;95.40
5210;DHT22;2624;48.048;11.706;2023-07-31T15:04:30;23.50;94.70
5210;DHT22;2624;48.048;11.706;2023-07-31T15:09:31;23.50;95.70
5210;DHT22;2624;48.048;11.706;2023-07-31T15:14:33;23.50;97.40
5210;DHT22;2624;48.048;11.706;2023-07-31T15:19:36;23.40;95.90
5210;DHT22;2624;48.048;11.706;2023-07-31T15:24:38;23.50;95.60
5210;DHT22;2624;48.048;11.706;2023-07-31T15:29:40;23.60;97.20
5210;DHT22;2624;48.048;11.706;2023-07-31T15:34:43;23.60;96.00
5210;DHT22;2624;48.048;11.706;2023-07-31T15:39:45;23.70;96.80
5210;DHT22;2624;48.048;11.706;2023-07-31T15:44:47;23.60;97.70
5210;DHT22;2624;48.048;11.706;2023-07-31T15:49:50;23.40;97.20
5210;DHT22;2624;48.048;11.706;2023-07-31T15:54:52;23.40;97.20
5210;DHT22;2624;48.048;11.706;2023-07-31T15:59:53;23.30;97.60
5210;DHT22;2624;48.048;11.706;2023-07-31T16:04:56;23.20;97.60
5210;DHT22;2624;48.048;11.706;2023-07-31T16:09:58;23.30;96.90
5210;DHT22;2624;48.048;11.706;2023-07-31T16:15:00;23.40;97.90
5210;DHT22;2624;48.048;11.706;2023-07-31T16:20:04;23.30;97.80
5210;DHT22;2624;48.048;11.706;2023-07-31T16:25:08;23.30;98.10
5210;DHT22;2624;48.048;11.706;2023-07-31T16:30:10;23.30;98.30
5210;DHT22;2624;48.048;11.706;2023-07-31T16:35:14;23.20;97.40
5210;DHT22;2624;48.048;11.706;2023-07-31T16:40:16;23.30;98.00
5210;DHT22;2624;48.048;11.706;2023-07-31T16:45:17;23.30;98.10
5210;DHT22;2624;48.048;11.706;2023-07-31T16:50:21;23.20;98.00
5210;DHT22;2624;48.048;11.706;2023-07-31T16:55:22;23.20;97.90
5210;DHT22;2624;48.048;11.706;2023-07-31T17:00:24;23.20;98.00
5210;DHT22;2624;48.048;11.706;2023-07-31T17:05:27;23.10;98.60
5210;DHT22;2624;48.048;11.706;2023-07-31T17:10:29;23.10;98.70
5210;DHT22;2624;48.048;11.706;2023-07-31T17:15:31;23.10;98.70
5210;DHT22;2624;48.048;11.706;2023-07-31T17:20:34;23.10;98.60
5210;DHT22;2624;48.048;11.706;2023-07-31T17:25:38;23.00;98.40
5210;DHT22;2624;48.048;11.706;2023-07-31T17:30:39;23.00;98.00
5210;DHT22;2624;48.048;11.706;2023-07-31T17:35:43;23.00;98.30
5210;DHT22;2624;48.048;11.706;2023-07-31T17:40:45;23.00;98.80
5210;DHT22;2624;48.048;11.706;2023-07-31T17:45:46;23.00;98.10
5210;DHT22;2624;48.048;11.706;2023-07-31T17:50:51;22.90;98.90
5210;DHT22;2624;48.048;11.706;2023-07-31T17:55:53;22.90;98.20
5210;DHT22;2624;48.048;11.706;2023-07-31T18:00:55;22.90;99.10
5210;DHT22;2624;48.048;11.706;2023-07-31T18:05:58;22.90;99.40
5210;DHT22;2624;48.048;11.706;2023-07-31T18:10:59;22.80;98.60
5210;DHT22;2624;48.048;11.706;2023-07-31T18:16:01;22.60;99.30
5210;DHT22;2624;48.048;11.706;2023-07-31T18:21:04;22.50;99.70
5210;DHT22;2624;48.048;11.706;2023-07-31T18:26:06;22.50;99.90
5210;DHT22;2624;48.048;11.706;2023-07-31T18:31:08;22.50;98.60
5210;DHT22;2624;48.048;11.706;2023-07-31T18:36:11;22.40;98.90
5210;DHT22;2624;48.048;11.706;2023-07-31T18:41:13;22.40;99.00
5210;DHT22;2624;48.048;11.706;2023-07-31T18:46:15;22.40;99.90
5210;DHT22;2624;48.048;11.706;2023-07-31T18:51:19;22.30;98.90
5210;DHT22;2624;48.048;11.706;2023-07-31T18:56:20;22.30;99.10
5210;DHT22;2624;48.048;11.706;2023-07-31T19:01:23;22.20;99.80
5210;DHT22;2624;48.048;11.706;2023-07-31T19:06:26;22.20;98.50
5210;DHT22;2624;48.048;11.706;2023-07-31T19:11:28;22.10;99.00
5210;DHT22;2624;48.048;11.706;2023-07-31T19:16:30;22.00;98.60
5210;DHT22;2624;48.048;11.706;2023-07-31T19:21:33;21.90;99.90
5210;DHT22;2624;48.048;11.706;2023-07-31T19:26:35;21.90;99.20
5210;DHT22;2624;48.048;11.706;2023-07-31T19:31:37;21.80;99.10
5210;DHT22;2624;48.048;11.706;2023-07-31T19:36:40;21.80;99.60
5210;DHT22;2624;48.048;11.706;2023-07-31T19:41:42;21.60;99.20
5210;DHT22;2624;48.048;11.706;2023-07-31T19:46:44;21.50;99.20
5210;DHT22;2624;48.048;11.706;2023-07-31T19:51:47;21.70;99.50
5210;DHT22;2624;48.048;11.706;2023-07-31T19:56:49;21.90;99.90
5210;DHT22;2624;48.048;11.706;2023-07-31T20:01:52;21.60;98.80
5210;DHT22;2624;48.048;11.706;2023-07-31T20:06:55;21.50;99.00
5210;DHT22;2624;48.048;11.706;2023-07-31T20:11:57;21.60;99.60
5210;DHT22;2624;48.048;11.706;2023-07-31T20:17:00;21.60;99.90
5210;DHT22;2624;48.048;11.706;2023-07-31T20:22:03;21.50;99.90
5210;DHT22;2624;48.048;11.706;2023-07-31T20:27:05;21.30;98.90
5210;DHT22;2624;48.048;11.706;2023-07-31T20:32:07;21.20;99.40
5210;DHT22;2624;48.048;11.706;2023-07-31T20:37:11;21.20;99.10
5210;DHT22;2624;48.048;11.706;2023-07-31T20:42:12;21.20;98.80
5210;DHT22;2624;48.048;11.706;2023-07-31T20:47:17;21.20;98.80
5210;DHT22;2624;48.048;11.706;2023-07-31T20:52:20;21.10;99.30
5210;DHT22;2624;48.048;11.706;2023-07-31T20:57:22;21.00;99.90
5210;DHT22;2624;48.048;11.706;2023-07-31T21:02:24;21.00;99.90
5210;DHT22;2624;48.048;11.706;2023-07-31T21:07:27;20.90;99.90
5210;DHT22;2624;48.048;11.706;2023-07-31T21:12:29;21.00;99.30
5210;DHT22;2624;48.048;11.706;2023-07-31T21:17:30;20.80;99.80
5210;DHT22;2624;48.048;11.706;2023-07-31T21:22:34;20.80;99.50
5210;DHT22;2624;48.048;11.706;2023-07-31T21:27:36;20.80;99.70
5210;DHT22;2624;48.048;11.706;2023-07-31T21:32:38;20.80;99.50
5210;DHT22;2624;48.048;11.706;2023-07-31T21:37:41;20.60;99.40
5210;DHT22;2624;48.048;11.706;2023-07-31T21:42:42;20.60;99.90
5210;DHT22;2624;48.048;11.706;2023-07-31T21:47:44;20.60;99.90
5210;DHT22;2624;48.048;11.706;2023-07-31T21:52:47;20.60;99.50
5210;DHT22;2624;48.048;11.706;2023-07-31T21:57:49;20.70;99.50
5210;DHT22;2624;48.048;11.706;2023-07-31T22:02:52;20.70;99.40
5210;DHT22;2624;48.048;11.706;2023-07-31T22:07:55;20.50;99.40
5210;DHT22;2624;48.048;11.706;2023-07-31T22:12:57;20.40;99.90
5210;DHT22;2624;48.048;11.706;2023-07-31T22:17:59;20.50;99.90
5210;DHT22;2624;48.048;11.706;2023-07-31T22:23:02;20.50;99.90
5210;DHT22;2624;48.048;11.706;2023-07-31T22:28:04;20.30;99.90
5210;DHT22;2624;48.048;11.706;2023-07-31T22:33:05;20.30;99.90
5210;DHT22;2624;48.048;11.706;2023-07-31T22:38:08;20.40;99.90
5210;DHT22;2624;48.048;11.706;2023-07-31T22:43:10;20.40;99.90
5210;DHT22;2624;48.048;11.706;2023-07-31T22:48:13;20.20;99.90
5210;DHT22;2624;48.048;11.706;2023-07-31T22:53:16;20.00;99.90
5210;DHT22;2624;48.048;11.706;2023-07-31T22:58:17;19.90;99.90
5210;DHT22;2624;48.048;11.706;2023-07-31T23:03:19;19.90;99.90
5210;DHT22;2624;48.048;11.706;2023-07-31T23:08:23;19.90;99.90
5210;DHT22;2624;48.048;11.706;2023-07-31T23:13:24;19.90;99.90
5210;DHT22;2624;48.048;11.706;2023-07-31T23:18:26;19.90;99.90
5210;DHT22;2624;48.048;11.706;2023-07-31T23:23:29;19.90;99.90
5210;DHT22;2624;48.048;11.706;2023-07-31T23:28:31;19.90;99.90
5210;DHT22;2624;48.048;11.706;2023-07-31T23:33:33;19.80;99.90
5210;DHT22;2624;48.048;11.706;2023-07-31T23:38:36;19.70;99.90
5210;DHT22;2624;48.048;11.706;2023-07-31T23:43:38;19.60;99.90
5210;DHT22;2624;48.048;11.706;2023-07-31T23:48:39;19.70;99.90
5210;DHT22;2624;48.048;11.706;2023-07-31T23:53:42;19.70;99.90
5210;DHT22;2624;48.048;11.706;2023-07-31T23:58:44;19.70;99.90
